Terminal Aerodrome Forecast
Issued by NWS Blacksburg, VA

Current Version | Previous Version | Graphics & Text | Print | Product List | Glossary On
Versions: 1 2 3 4 5 6 7 8 9 10 11 12 13 14 15 16 17 18 19 20 21 22 23 24 25 26
000
FTUS41 KRNK 221136
TAFBLF
TAF
KBLF 221136Z 2212/2312 31007KT P6SM OVC009
     FM221500 32010G16KT P6SM OVC012
     FM221800 32012G18KT P6SM -SHRA BKN015
     FM230300 30006KT P6SM OVC008=

USA.gov is the U.S. government's official web portal to all federal, state and local government web resources and services.